createdAt,value
2023-03-18T00:00:31.138Z,2.80
2023-03-18T00:02:58.483Z,3.00
2023-03-18T00:05:25.693Z,3.00
2023-03-18T00:07:52.668Z,3.60
2023-03-18T00:10:20.508Z,4.00
2023-03-18T00:12:47.894Z,3.88
2023-03-18T00:15:16.286Z,2.95
2023-03-18T00:17:43.461Z,3.33
2023-03-18T00:20:12.963Z,3.08
2023-03-18T00:22:42.113Z,3.40
2023-03-18T00:25:12.140Z,3.23
2023-03-18T00:27:39.888Z,3.35
2023-03-18T00:30:08.582Z,3.60
2023-03-18T00:32:36.338Z,3.63
2023-03-18T00:35:03.993Z,3.30
2023-03-18T00:37:33.606Z,3.40
2023-03-18T00:40:10.000Z,3.60
2023-03-18T00:42:47.283Z,3.67
2023-03-18T00:45:17.092Z,3.42
2023-03-18T00:47:45.212Z,3.70
2023-03-18T00:50:12.729Z,3.67
2023-03-18T00:52:39.601Z,3.97
2023-03-18T00:55:08.309Z,3.92
2023-03-18T00:57:35.549Z,4.70
2023-03-18T01:00:04.278Z,4.25
2023-03-18T01:02:31.190Z,4.20
2023-03-18T01:04:58.084Z,4.13
2023-03-18T01:07:25.398Z,4.33
2023-03-18T01:09:52.710Z,3.78
2023-03-18T01:12:19.617Z,4.07
2023-03-18T01:14:46.996Z,4.20
2023-03-18T01:17:14.124Z,4.03
2023-03-18T01:19:41.082Z,4.10
2023-03-18T01:22:08.231Z,4.93
2023-03-18T01:24:36.530Z,4.50
2023-03-18T01:27:04.040Z,4.85
2023-03-18T01:29:30.864Z,4.15
2023-03-18T01:31:57.795Z,4.15
2023-03-18T01:34:25.098Z,4.53
2023-03-18T01:36:52.490Z,4.65
2023-03-18T01:39:19.556Z,4.53
2023-03-18T01:41:46.681Z,4.78
2023-03-18T01:44:22.630Z,5.22
2023-03-18T01:46:51.880Z,4.97
2023-03-18T01:49:25.911Z,5.18
2023-03-18T01:52:20.986Z,5.20
2023-03-18T01:55:05.978Z,4.82
2023-03-18T01:57:35.008Z,4.70
2023-03-18T02:00:04.508Z,5.05
2023-03-18T02:02:33.352Z,4.35
2023-03-18T02:05:06.629Z,4.75
2023-03-18T02:07:36.598Z,4.90
2023-03-18T02:10:16.262Z,4.95
2023-03-18T02:12:50.792Z,4.85
2023-03-18T02:15:22.545Z,4.67
2023-03-18T02:18:05.218Z,4.40
2023-03-18T02:21:07.253Z,4.78
2023-03-18T02:24:43.885Z,4.50
2023-03-18T02:27:20.735Z,4.90
2023-03-18T02:29:49.620Z,4.40
2023-03-18T02:32:18.170Z,4.70
2023-03-18T02:34:45.603Z,4.45
2023-03-18T02:37:12.832Z,4.37
2023-03-18T02:39:39.746Z,4.85
2023-03-18T02:42:06.836Z,4.43
2023-03-18T02:44:40.464Z,5.05
2023-03-18T02:47:14.285Z,4.50
2023-03-18T02:49:41.465Z,4.53
2023-03-18T02:52:08.773Z,4.93
2023-03-18T02:54:35.564Z,4.83
2023-03-18T02:57:03.148Z,4.78
2023-03-18T02:59:32.375Z,5.28
2023-03-18T03:01:59.466Z,5.43
2023-03-18T03:04:27.806Z,4.40
2023-03-18T03:06:56.820Z,4.63
2023-03-18T03:09:23.725Z,4.68
2023-03-18T03:11:51.495Z,4.57
2023-03-18T03:14:18.402Z,4.60
2023-03-18T03:16:45.235Z,5.30
2023-03-18T03:19:12.118Z,4.28
2023-03-18T03:21:38.976Z,4.45
2023-03-18T03:24:07.683Z,4.70
2023-03-18T03:26:35.015Z,4.45
2023-03-18T03:29:04.433Z,5.03
2023-03-18T03:31:31.726Z,4.65
2023-03-18T03:33:59.196Z,4.68
2023-03-18T03:36:26.514Z,4.80
2023-03-18T03:38:53.946Z,4.13
2023-03-18T03:41:21.131Z,4.40
2023-03-18T03:43:47.917Z,4.20
2023-03-18T03:46:15.360Z,4.68
2023-03-18T03:48:42.463Z,4.90
2023-03-18T03:51:09.319Z,4.88
2023-03-18T03:53:36.591Z,4.60
2023-03-18T03:56:04.318Z,4.40
2023-03-18T03:58:31.349Z,4.73
2023-03-18T04:00:58.369Z,4.13
2023-03-18T04:03:25.591Z,4.13
2023-03-18T04:05:52.728Z,4.20
2023-03-18T04:08:19.874Z,4.50
2023-03-18T04:10:46.838Z,4.50
2023-03-18T04:13:13.694Z,4.73
2023-03-18T04:15:40.557Z,4.70
2023-03-18T04:18:09.114Z,4.60
2023-03-18T04:20:38.749Z,4.93
2023-03-18T04:23:07.395Z,4.47
2023-03-18T04:25:35.290Z,4.67
2023-03-18T04:28:03.128Z,4.80
2023-03-18T04:30:30.790Z,5.03
2023-03-18T04:32:59.662Z,4.97
2023-03-18T04:35:27.012Z,4.73
2023-03-18T04:37:54.663Z,4.80
2023-03-18T04:40:21.857Z,4.73
2023-03-18T04:42:49.014Z,4.40
2023-03-18T04:45:17.554Z,4.33
2023-03-18T04:47:45.488Z,4.50
2023-03-18T04:50:14.529Z,4.17
2023-03-18T04:52:43.688Z,4.60
2023-03-18T04:55:11.832Z,4.60
2023-03-18T04:57:38.899Z,4.23
2023-03-18T05:00:11.636Z,4.53
2023-03-18T05:02:39.867Z,5.83
2023-03-18T05:05:08.154Z,5.27
2023-03-18T05:07:34.996Z,4.60
2023-03-18T05:10:01.974Z,5.07
2023-03-18T05:12:28.762Z,5.33
2023-03-18T05:14:55.730Z,4.47
2023-03-18T05:17:25.473Z,5.47
2023-03-18T05:19:52.711Z,4.73
2023-03-18T05:22:22.080Z,4.67
2023-03-18T05:24:49.588Z,4.43
2023-03-18T05:27:18.984Z,5.50
2023-03-18T05:29:46.277Z,5.93
2023-03-18T05:32:14.887Z,5.27
2023-03-18T05:34:42.915Z,5.50
2023-03-18T05:37:14.067Z,4.90
2023-03-18T05:39:44.337Z,5.17
2023-03-18T05:42:12.565Z,4.90
2023-03-18T05:44:40.377Z,5.80
2023-03-18T05:47:08.466Z,5.60
2023-03-18T05:49:36.127Z,5.60
2023-03-18T05:52:03.030Z,4.90
2023-03-18T05:54:30.104Z,5.53
2023-03-18T05:56:58.072Z,5.40
2023-03-18T05:59:25.177Z,5.63
2023-03-18T06:01:53.865Z,5.53
2023-03-18T06:04:20.878Z,5.60
2023-03-18T06:06:48.259Z,6.07
2023-03-18T06:09:16.518Z,5.53
2023-03-18T06:11:44.556Z,5.13
2023-03-18T06:14:12.814Z,5.33
2023-03-18T06:16:41.670Z,5.57
2023-03-18T06:19:10.781Z,5.40
2023-03-18T06:21:39.556Z,5.03
2023-03-18T06:24:08.233Z,4.83
2023-03-18T06:26:35.450Z,5.30
2023-03-18T06:29:03.979Z,5.50
2023-03-18T06:31:31.252Z,5.27
2023-03-18T06:34:00.874Z,5.93
2023-03-18T06:36:28.139Z,6.93
2023-03-18T06:38:55.914Z,6.45
2023-03-18T06:41:25.521Z,5.47
2023-03-18T06:43:53.672Z,5.68
2023-03-18T06:46:20.456Z,5.93
2023-03-18T06:48:49.290Z,5.20
2023-03-18T06:51:16.242Z,5.25
2023-03-18T06:53:42.992Z,5.47
2023-03-18T06:56:10.034Z,5.10
2023-03-18T06:58:37.016Z,4.80
2023-03-18T07:01:04.096Z,4.70
2023-03-18T07:03:30.981Z,3.80
2023-03-18T07:05:57.952Z,3.85
2023-03-18T07:08:25.002Z,4.40
2023-03-18T07:10:54.764Z,4.15
2023-03-18T07:13:23.122Z,4.07
2023-03-18T07:15:50.009Z,3.85
2023-03-18T07:18:17.241Z,5.10
2023-03-18T07:20:44.114Z,4.40
2023-03-18T07:23:11.371Z,4.50
2023-03-18T07:25:38.293Z,5.18
2023-03-18T07:28:05.759Z,4.43
2023-03-18T07:30:33.933Z,5.00
2023-03-18T07:33:01.123Z,4.55
2023-03-18T07:35:28.792Z,4.53
2023-03-18T07:37:56.735Z,4.10
2023-03-18T07:40:24.464Z,4.07
2023-03-18T07:42:54.168Z,3.42
2023-03-18T07:45:21.128Z,4.20
2023-03-18T07:47:48.180Z,3.63
2023-03-18T07:50:15.367Z,3.50
2023-03-18T07:52:42.898Z,4.90
2023-03-18T07:55:10.579Z,3.88
2023-03-18T07:57:38.091Z,3.75
2023-03-18T08:00:07.031Z,4.60
2023-03-18T08:02:34.779Z,3.72
2023-03-18T08:05:02.235Z,3.50
2023-03-18T08:07:29.699Z,3.90
2023-03-18T08:09:56.501Z,3.35
2023-03-18T08:12:23.513Z,3.35
2023-03-18T08:14:50.326Z,3.60
2023-03-18T08:17:17.753Z,3.53
2023-03-18T08:19:44.805Z,3.67
2023-03-18T08:22:12.141Z,3.25
2023-03-18T08:24:39.009Z,3.42
2023-03-18T08:27:06.525Z,3.80
2023-03-18T08:29:33.630Z,3.22
2023-03-18T08:32:00.866Z,3.45
2023-03-18T08:34:28.120Z,3.10
2023-03-18T08:36:54.991Z,3.20
2023-03-18T08:39:22.048Z,3.13
2023-03-18T08:41:49.143Z,2.97
2023-03-18T08:44:16.437Z,2.95
2023-03-18T08:46:43.314Z,3.50
2023-03-18T08:49:11.003Z,3.50
2023-03-18T08:51:38.469Z,3.38
2023-03-18T08:54:05.902Z,3.65
2023-03-18T08:56:34.227Z,2.78
2023-03-18T08:59:01.405Z,3.25
2023-03-18T09:01:28.267Z,3.90
2023-03-18T09:03:57.787Z,3.40
2023-03-18T09:06:24.631Z,2.90
2023-03-18T09:08:52.088Z,3.15
2023-03-18T09:11:19.030Z,3.10
2023-03-18T09:13:49.059Z,3.08
2023-03-18T09:16:16.143Z,3.15
2023-03-18T09:18:45.257Z,2.80
2023-03-18T09:21:12.874Z,2.95
2023-03-18T09:23:39.898Z,3.25
2023-03-18T09:26:06.689Z,3.05
2023-03-18T09:28:33.516Z,2.70
2023-03-18T09:31:00.374Z,2.50
2023-03-18T09:33:27.273Z,2.63
2023-03-18T09:35:54.721Z,2.40
2023-03-18T09:38:22.459Z,2.40
2023-03-18T09:41:13.661Z,2.78
2023-03-18T09:44:02.978Z,2.40
2023-03-18T09:46:46.335Z,2.53
2023-03-18T09:49:22.259Z,2.40
2023-03-18T09:52:19.374Z,2.78
2023-03-18T09:54:57.638Z,2.35
2023-03-18T09:57:30.534Z,2.97
2023-03-18T10:00:32.152Z,2.53
2023-03-18T10:03:25.802Z,2.50
2023-03-18T10:06:01.159Z,2.30
2023-03-18T10:09:28.491Z,2.60
2023-03-18T10:12:15.966Z,2.17
2023-03-18T10:14:52.425Z,2.13
2023-03-18T10:17:37.358Z,1.88
2023-03-18T10:20:26.064Z,2.05
2023-03-18T10:23:10.545Z,2.33
2023-03-18T10:25:55.842Z,2.30
2023-03-18T10:28:58.621Z,2.40
2023-03-18T10:31:50.845Z,2.00
2023-03-18T10:34:23.995Z,2.20
2023-03-18T10:37:20.148Z,1.88
2023-03-18T10:39:48.699Z,1.80
2023-03-18T10:42:27.749Z,1.95
2023-03-18T10:45:08.765Z,2.20
2023-03-18T10:47:44.845Z,2.25
2023-03-18T10:50:20.719Z,2.10
2023-03-18T10:53:27.122Z,1.90
2023-03-18T10:56:04.850Z,1.80
2023-03-18T10:58:32.248Z,1.65
2023-03-18T11:00:59.664Z,1.83
2023-03-18T11:03:30.560Z,1.80
2023-03-18T11:06:03.211Z,1.70
2023-03-18T11:08:40.932Z,1.55
2023-03-18T11:11:34.610Z,2.08
2023-03-18T11:14:05.188Z,1.52
2023-03-18T11:16:50.198Z,1.65
2023-03-18T11:19:41.681Z,2.10
2023-03-18T11:22:20.893Z,1.63
2023-03-18T11:25:06.103Z,1.60
2023-03-18T11:27:43.825Z,1.60
2023-03-18T11:30:44.776Z,1.77
2023-03-18T11:33:11.923Z,1.88
2023-03-18T11:35:57.570Z,1.92
2023-03-18T11:38:37.079Z,1.70
2023-03-18T11:41:27.684Z,1.70
2023-03-18T11:44:02.074Z,1.40
2023-03-18T11:47:04.402Z,1.20
2023-03-18T11:49:31.845Z,1.10
2023-03-18T11:52:11.021Z,1.30
2023-03-18T11:55:15.707Z,1.50
2023-03-18T11:58:34.549Z,1.45
2023-03-18T12:01:10.838Z,1.50
2023-03-18T12:04:33.876Z,1.35
2023-03-18T12:07:55.319Z,1.02
2023-03-18T12:10:34.275Z,1.08
2023-03-18T12:13:37.459Z,1.20
2023-03-18T12:16:51.853Z,1.08
2023-03-18T12:20:18.707Z,1.15
2023-03-18T12:23:07.024Z,1.42
2023-03-18T12:26:09.546Z,1.20
2023-03-18T12:29:07.485Z,1.25
2023-03-18T12:32:06.535Z,1.33
2023-03-18T12:34:49.150Z,1.27
2023-03-18T12:37:44.205Z,1.00
2023-03-18T12:40:47.217Z,1.30
2023-03-18T12:44:01.640Z,1.00
2023-03-18T12:46:31.813Z,0.85
2023-03-18T12:49:33.889Z,1.23
2023-03-18T12:52:09.876Z,0.90
2023-03-18T12:55:12.978Z,0.90
2023-03-18T12:58:00.329Z,1.13
2023-03-18T13:00:37.465Z,1.52
2023-03-18T13:03:23.930Z,0.77
2023-03-18T13:05:56.965Z,1.05
2023-03-18T13:08:44.889Z,1.00
2023-03-18T13:11:39.486Z,1.20
2023-03-18T13:14:11.576Z,1.20
2023-03-18T13:16:39.744Z,0.98
2023-03-18T13:19:09.154Z,1.00
2023-03-18T13:21:44.652Z,1.05
2023-03-18T13:24:46.269Z,0.88
2023-03-18T13:27:46.484Z,0.70
2023-03-18T13:30:24.698Z,0.77
2023-03-18T13:33:42.723Z,0.80
2023-03-18T13:36:28.658Z,0.70
2023-03-18T13:39:46.130Z,0.77
2023-03-18T13:42:28.636Z,1.10
2023-03-18T13:45:15.613Z,0.95
2023-03-18T13:47:44.337Z,1.15
2023-03-18T13:50:20.372Z,1.05
2023-03-18T13:52:53.117Z,1.00
2023-03-18T13:55:41.194Z,1.10
2023-03-18T13:58:19.486Z,1.20
2023-03-18T14:01:24.119Z,1.08
2023-03-18T14:03:51.103Z,1.10
2023-03-18T14:06:47.503Z,1.00
2023-03-18T14:09:34.539Z,1.27
2023-03-18T14:12:38.222Z,1.00
2023-03-18T14:15:12.960Z,1.20
2023-03-18T14:17:48.432Z,0.95
2023-03-18T14:20:15.103Z,1.20
2023-03-18T14:22:44.639Z,1.08
2023-03-18T14:25:14.483Z,1.42
2023-03-18T14:27:47.205Z,1.30
2023-03-18T14:30:32.377Z,1.30
2023-03-18T14:33:03.080Z,1.08
2023-03-18T14:35:53.346Z,1.13
2023-03-18T14:38:22.218Z,1.42
2023-03-18T14:40:54.318Z,1.45
2023-03-18T14:43:43.409Z,1.30
2023-03-18T14:46:31.398Z,1.15
2023-03-18T14:48:58.399Z,1.30
2023-03-18T14:51:31.634Z,1.20
2023-03-18T14:54:21.076Z,1.05
2023-03-18T14:56:55.409Z,1.27
2023-03-18T14:59:25.651Z,1.30
2023-03-18T15:01:53.993Z,1.20
2023-03-18T15:04:27.282Z,1.25
2023-03-18T15:07:00.340Z,1.00
2023-03-18T15:09:33.648Z,1.40
2023-03-18T15:12:16.142Z,1.30
2023-03-18T15:14:42.980Z,1.38
2023-03-18T15:17:16.867Z,1.65
2023-03-18T15:19:46.376Z,1.52
2023-03-18T15:22:26.173Z,1.48
2023-03-18T15:25:04.095Z,2.00
2023-03-18T15:27:34.997Z,1.75
2023-03-18T15:30:07.772Z,1.50
2023-03-18T15:32:47.667Z,1.85
2023-03-18T15:35:24.568Z,1.52
2023-03-18T15:38:09.031Z,1.63
2023-03-18T15:40:50.535Z,1.45
2023-03-18T15:43:30.339Z,1.25
2023-03-18T15:46:01.198Z,1.40
2023-03-18T15:48:43.944Z,1.48
2023-03-18T15:51:45.042Z,1.58
2023-03-18T15:54:38.249Z,1.50
2023-03-18T15:57:20.699Z,1.40
2023-03-18T15:59:48.031Z,1.70
2023-03-18T16:02:18.507Z,1.80
2023-03-18T16:04:46.574Z,1.90
2023-03-18T16:07:19.095Z,1.63
2023-03-18T16:09:46.149Z,1.60
2023-03-18T16:12:23.886Z,1.65
2023-03-18T16:14:52.426Z,1.40
2023-03-18T16:17:22.030Z,1.58
2023-03-18T16:19:53.806Z,1.48
2023-03-18T16:22:20.696Z,1.60
2023-03-18T16:24:47.702Z,1.40
2023-03-18T16:27:41.390Z,1.65
2023-03-18T16:30:20.122Z,1.40
2023-03-18T16:32:47.299Z,1.58
2023-03-18T16:35:21.501Z,1.40
2023-03-18T16:37:49.489Z,1.65
2023-03-18T16:40:20.436Z,1.58
2023-03-18T16:42:48.030Z,1.70
2023-03-18T16:45:18.260Z,1.77
2023-03-18T16:47:48.569Z,1.55
2023-03-18T16:50:19.655Z,1.65
2023-03-18T16:52:47.479Z,1.67
2023-03-18T16:55:17.747Z,1.40
2023-03-18T16:57:54.320Z,1.50
2023-03-18T17:00:34.239Z,1.58
2023-03-18T17:03:01.867Z,1.60
2023-03-18T17:05:29.206Z,1.70
2023-03-18T17:07:56.247Z,1.73
2023-03-18T17:10:27.034Z,1.35
2023-03-18T17:13:23.015Z,1.63
2023-03-18T17:15:51.486Z,1.73
2023-03-18T17:18:22.390Z,1.77
2023-03-18T17:20:50.984Z,1.75
2023-03-18T17:23:20.550Z,1.80
2023-03-18T17:25:54.899Z,1.70
2023-03-18T17:28:37.917Z,1.70
2023-03-18T17:31:05.617Z,1.60
2023-03-18T17:33:37.066Z,1.75
2023-03-18T17:36:08.726Z,1.58
2023-03-18T17:38:36.332Z,1.83
2023-03-18T17:41:13.865Z,1.70
2023-03-18T17:43:40.656Z,1.83
2023-03-18T17:46:07.933Z,2.05
2023-03-18T17:48:37.728Z,2.03
2023-03-18T17:51:16.626Z,1.80
2023-03-18T17:53:49.954Z,2.38
2023-03-18T17:56:20.222Z,2.30
2023-03-18T17:58:50.497Z,2.20
2023-03-18T18:01:20.504Z,2.08
2023-03-18T18:03:47.811Z,2.00
2023-03-18T18:06:25.355Z,1.95
2023-03-18T18:08:52.259Z,2.90
2023-03-18T18:11:30.736Z,5.00
2023-03-18T18:14:09.947Z,6.93
2023-03-18T18:16:37.517Z,6.75
2023-03-18T18:19:04.346Z,5.82
2023-03-18T18:21:31.360Z,5.40
2023-03-18T18:23:58.314Z,5.43
2023-03-18T18:26:25.187Z,5.60
2023-03-18T18:28:53.315Z,7.30
2023-03-18T18:31:23.722Z,7.35
2023-03-18T18:33:51.054Z,7.20
2023-03-18T18:36:18.297Z,8.18
2023-03-18T18:38:45.496Z,7.93
2023-03-18T18:41:12.668Z,2.85
2023-03-18T18:43:39.538Z,8.70
2023-03-18T18:46:17.334Z,9.70
2023-03-18T18:48:48.703Z,12.63
2023-03-18T18:51:19.835Z,10.68
2023-03-18T18:53:47.572Z,7.63
2023-03-18T18:56:37.774Z,7.45
2023-03-18T18:59:26.919Z,5.55
2023-03-18T19:01:55.486Z,4.72
2023-03-18T19:04:23.504Z,3.55
2023-03-18T19:06:52.380Z,6.75
2023-03-18T19:09:24.348Z,6.63
2023-03-18T19:11:53.289Z,7.75
2023-03-18T19:14:29.110Z,9.75
2023-03-18T19:16:58.627Z,11.10
2023-03-18T19:19:34.409Z,11.27
2023-03-18T19:22:02.884Z,11.93
2023-03-18T19:24:35.943Z,10.98
2023-03-18T19:27:11.662Z,10.73
2023-03-18T19:29:38.488Z,9.70
2023-03-18T19:32:07.111Z,8.60
2023-03-18T19:34:35.309Z,11.00
2023-03-18T19:37:05.889Z,11.05
2023-03-18T19:39:32.692Z,8.52
2023-03-18T19:41:59.444Z,8.48
2023-03-18T19:44:27.244Z,8.65
2023-03-18T19:46:58.455Z,11.68
2023-03-18T19:49:39.366Z,9.45
2023-03-18T19:52:19.241Z,9.02
2023-03-18T19:54:47.553Z,10.13
2023-03-18T19:57:27.738Z,9.88
2023-03-18T19:59:58.203Z,10.02
2023-03-18T20:02:31.940Z,9.95
2023-03-18T20:05:14.218Z,12.68
2023-03-18T20:07:41.009Z,12.82
2023-03-18T20:10:11.171Z,10.55
2023-03-18T20:12:49.644Z,13.52
2023-03-18T20:15:21.704Z,11.00
2023-03-18T20:17:51.366Z,7.53
2023-03-18T20:20:26.355Z,14.40
2023-03-18T20:23:06.303Z,10.27
2023-03-18T20:25:42.916Z,10.20
2023-03-18T20:28:20.311Z,10.50
2023-03-18T20:30:52.232Z,9.43
2023-03-18T20:33:22.098Z,9.77
2023-03-18T20:35:52.318Z,14.40
2023-03-18T20:38:25.509Z,14.93
2023-03-18T20:40:52.528Z,15.77
2023-03-18T20:43:22.756Z,22.90
2023-03-18T20:45:53.132Z,26.77
2023-03-18T20:48:22.270Z,26.37
2023-03-18T20:50:50.891Z,22.67
2023-03-18T20:53:23.800Z,18.80
2023-03-18T20:55:51.788Z,24.90
2023-03-18T20:58:28.880Z,20.45
2023-03-18T21:00:55.865Z,15.98
2023-03-18T21:03:29.959Z,10.80
2023-03-18T21:05:59.364Z,18.80
2023-03-18T21:08:28.053Z,17.70
2023-03-18T21:10:59.032Z,17.10
2023-03-18T21:13:35.998Z,15.40
2023-03-18T21:16:05.988Z,12.38
2023-03-18T21:18:35.525Z,13.07
2023-03-18T21:21:02.641Z,13.18
2023-03-18T21:23:33.974Z,14.83
2023-03-18T21:26:01.286Z,14.90
2023-03-18T21:28:30.078Z,14.57
2023-03-18T21:30:58.572Z,14.40
2023-03-18T21:33:30.045Z,16.50
2023-03-18T21:35:57.943Z,15.43
2023-03-18T21:38:28.019Z,14.63
2023-03-18T21:40:56.579Z,12.53
2023-03-18T21:43:26.456Z,10.70
2023-03-18T21:45:54.116Z,10.50
2023-03-18T21:48:21.654Z,9.27
2023-03-18T21:50:48.939Z,9.60
2023-03-18T21:53:19.273Z,11.23
2023-03-18T21:55:46.639Z,10.17
2023-03-18T21:58:20.871Z,10.13
2023-03-18T22:00:57.842Z,10.13
2023-03-18T22:03:28.519Z,8.90
2023-03-18T22:05:56.486Z,8.43
2023-03-18T22:08:24.092Z,9.20
2023-03-18T22:10:52.071Z,8.43
2023-03-18T22:13:22.395Z,7.27
2023-03-18T22:15:54.332Z,7.13
2023-03-18T22:18:23.190Z,6.87
2023-03-18T22:20:51.543Z,8.57
2023-03-18T22:23:22.484Z,8.77
2023-03-18T22:25:54.801Z,7.97
2023-03-18T22:28:23.684Z,8.13
2023-03-18T22:30:52.755Z,8.20
2023-03-18T22:33:34.072Z,8.80
2023-03-18T22:36:01.229Z,9.27
2023-03-18T22:38:29.464Z,8.83
2023-03-18T22:40:57.669Z,11.90
2023-03-18T22:43:36.969Z,13.50
2023-03-18T22:46:07.690Z,11.90
2023-03-18T22:48:34.929Z,11.13
2023-03-18T22:51:03.145Z,8.93
2023-03-18T22:53:40.538Z,8.20
2023-03-18T22:56:14.111Z,8.50
2023-03-18T22:58:41.027Z,7.40
2023-03-18T23:01:14.000Z,8.70
2023-03-18T23:03:43.783Z,7.80
2023-03-18T23:06:17.162Z,8.80
2023-03-18T23:08:45.687Z,8.27
2023-03-18T23:11:13.752Z,8.37
2023-03-18T23:13:44.126Z,7.73
2023-03-18T23:16:18.696Z,9.07
2023-03-18T23:18:45.619Z,9.53
2023-03-18T23:21:21.361Z,8.80
2023-03-18T23:23:48.850Z,8.57
2023-03-18T23:26:16.945Z,9.40
2023-03-18T23:28:45.235Z,9.50
2023-03-18T23:31:14.471Z,18.20
2023-03-18T23:33:42.003Z,17.23
2023-03-18T23:36:11.115Z,10.17
2023-03-18T23:38:38.223Z,9.10
2023-03-18T23:41:06.070Z,9.47
2023-03-18T23:43:32.883Z,10.30
2023-03-18T23:45:59.879Z,8.90
2023-03-18T23:48:26.957Z,8.73
2023-03-18T23:50:53.892Z,7.90
2023-03-18T23:53:20.889Z,8.90
2023-03-18T23:55:49.239Z,11.47
2023-03-18T23:58:16.578Z,12.40
